createdAt,value
2023-01-30T00:00:04.804Z,940.64
2023-01-30T00:05:04.256Z,940.61
2023-01-30T00:10:04.694Z,940.57
2023-01-30T00:15:03.376Z,940.51
2023-01-30T00:20:04.515Z,940.43
2023-01-30T00:25:03.611Z,940.43
2023-01-30T00:30:04.609Z,940.37
2023-01-30T00:35:03.605Z,940.19
2023-01-30T00:40:04.392Z,940.04
2023-01-30T00:45:03.382Z,940.00
2023-01-30T00:50:04.728Z,940.00
2023-01-30T00:55:03.470Z,939.90
2023-01-30T01:00:04.716Z,939.72
2023-01-30T01:05:03.330Z,939.56
2023-01-30T01:10:04.117Z,939.41
2023-01-30T01:15:03.354Z,939.35
2023-01-30T01:20:04.489Z,939.31
2023-01-30T01:25:03.413Z,939.33
2023-01-30T01:30:04.562Z,939.29
2023-01-30T01:35:03.301Z,939.19
2023-01-30T01:40:04.338Z,939.13
2023-01-30T01:45:03.438Z,939.06
2023-01-30T01:50:04.492Z,939.06
2023-01-30T01:55:03.366Z,939.06
2023-01-30T02:00:09.595Z,939.04
2023-01-30T02:05:03.285Z,939.02
2023-01-30T02:10:04.433Z,939.09
2023-01-30T02:15:03.371Z,939.07
2023-01-30T02:20:04.463Z,939.02
2023-01-30T02:25:04.309Z,938.96
2023-01-30T02:30:04.521Z,938.90
2023-01-30T02:35:04.363Z,939.00
2023-01-30T02:40:04.624Z,939.09
2023-01-30T02:45:03.379Z,939.29
2023-01-30T02:50:04.498Z,939.31
2023-01-30T02:55:03.254Z,939.23
2023-01-30T03:00:04.447Z,939.13
2023-01-30T03:05:03.298Z,939.07
2023-01-30T03:10:05.516Z,939.11
2023-01-30T03:15:03.521Z,939.07
2023-01-30T03:20:04.512Z,938.90
2023-01-30T03:25:03.433Z,938.74
2023-01-30T03:30:04.263Z,938.64
2023-01-30T03:35:03.276Z,938.66
2023-01-30T03:40:04.388Z,938.62
2023-01-30T03:45:03.313Z,938.68
2023-01-30T03:50:04.482Z,938.62
2023-01-30T03:55:03.428Z,938.64
2023-01-30T04:00:04.354Z,938.60
2023-01-30T04:05:03.247Z,938.56
2023-01-30T04:10:05.265Z,938.49
2023-01-30T04:15:03.372Z,938.37
2023-01-30T04:20:04.462Z,938.21
2023-01-30T04:25:04.437Z,938.11
2023-01-30T04:30:04.290Z,938.08
2023-01-30T04:35:03.298Z,938.08
2023-01-30T04:40:04.567Z,938.11
2023-01-30T04:45:03.314Z,938.08
2023-01-30T04:50:04.548Z,938.10
2023-01-30T04:55:03.434Z,938.02
2023-01-30T05:00:04.280Z,938.00
2023-01-30T05:05:03.235Z,938.02
2023-01-30T05:10:04.411Z,938.00
2023-01-30T05:15:03.430Z,937.96
2023-01-30T05:20:04.405Z,937.88
2023-01-30T05:25:03.424Z,937.74
2023-01-30T05:30:04.296Z,937.74
2023-01-30T05:35:03.285Z,937.72
2023-01-30T05:40:04.370Z,937.74
2023-01-30T05:45:03.298Z,937.78
2023-01-30T05:50:04.431Z,937.72
2023-01-30T05:55:03.412Z,937.66
2023-01-30T06:00:04.318Z,937.70
2023-01-30T06:05:03.439Z,937.64
2023-01-30T06:10:04.183Z,937.60
2023-01-30T06:15:03.352Z,937.59
2023-01-30T06:20:09.221Z,937.60
2023-01-30T06:25:03.581Z,937.55
2023-01-30T06:30:04.026Z,937.57
2023-01-30T06:35:03.235Z,937.55
2023-01-30T06:40:04.394Z,937.51
2023-01-30T06:45:03.332Z,937.41
2023-01-30T06:50:04.406Z,937.31
2023-01-30T06:55:03.410Z,937.31
2023-01-30T07:00:04.324Z,937.27
2023-01-30T07:05:03.274Z,937.25
2023-01-30T07:10:08.109Z,937.25
2023-01-30T07:15:03.374Z,937.25
2023-01-30T07:20:04.261Z,937.21
2023-01-30T07:25:03.380Z,937.27
2023-01-30T07:30:04.664Z,937.35
2023-01-30T07:35:05.817Z,937.39
2023-01-30T07:40:04.645Z,937.41
2023-01-30T07:45:03.327Z,937.35
2023-01-30T07:50:04.531Z,937.37
2023-01-30T07:55:03.480Z,937.37
2023-01-30T08:00:04.577Z,937.37
2023-01-30T08:05:05.893Z,937.43
2023-01-30T08:10:04.362Z,937.41
2023-01-30T08:15:03.304Z,937.35
2023-01-30T08:20:05.458Z,937.31
2023-01-30T08:25:03.373Z,937.29
2023-01-30T08:30:04.282Z,937.33
2023-01-30T08:35:03.225Z,937.47
2023-01-30T08:40:04.317Z,937.55
2023-01-30T08:45:03.320Z,937.64
2023-01-30T08:50:04.432Z,937.64
2023-01-30T08:55:03.373Z,937.70
2023-01-30T09:00:04.465Z,937.70
2023-01-30T09:05:03.277Z,937.74
2023-01-30T09:10:04.358Z,937.82
2023-01-30T09:15:03.291Z,937.78
2023-01-30T09:20:04.449Z,937.84
2023-01-30T09:25:03.491Z,937.84
2023-01-30T09:30:04.344Z,937.86
2023-01-30T09:35:03.468Z,937.92
2023-01-30T09:40:05.607Z,937.98
2023-01-30T09:45:03.350Z,938.04
2023-01-30T09:50:04.404Z,938.08
2023-01-30T09:55:03.461Z,938.08
2023-01-30T10:00:04.452Z,938.11
2023-01-30T10:05:03.305Z,938.19
2023-01-30T10:10:04.439Z,938.21
2023-01-30T10:15:03.324Z,938.25
2023-01-30T10:20:04.354Z,938.31
2023-01-30T10:25:03.363Z,938.35
2023-01-30T10:30:04.500Z,938.49
2023-01-30T10:35:03.225Z,938.56
2023-01-30T10:40:04.588Z,938.66
2023-01-30T10:45:04.919Z,938.76
2023-01-30T10:50:04.471Z,938.90
2023-01-30T10:55:03.299Z,938.94
2023-01-30T11:00:04.532Z,938.98
2023-01-30T11:05:03.500Z,939.02
2023-01-30T11:10:04.384Z,939.07
2023-01-30T11:15:03.326Z,939.13
2023-01-30T11:20:04.293Z,939.17
2023-01-30T11:25:03.399Z,939.25
2023-01-30T11:30:04.464Z,939.29
2023-01-30T11:35:03.207Z,939.27
2023-01-30T11:40:04.560Z,939.29
2023-01-30T11:45:16.472Z,939.35
2023-01-30T11:50:11.144Z,939.41
2023-01-30T11:55:03.364Z,939.47
2023-01-30T12:00:04.474Z,939.51
2023-01-30T12:05:03.475Z,939.49
2023-01-30T12:10:04.336Z,939.54
2023-01-30T12:15:03.414Z,939.56
2023-01-30T12:20:04.452Z,939.60
2023-01-30T12:25:03.546Z,939.66
2023-01-30T12:30:04.323Z,939.70
2023-01-30T12:35:03.444Z,939.72
2023-01-30T12:40:04.415Z,939.70
2023-01-30T12:45:03.325Z,939.70
2023-01-30T12:50:04.401Z,939.72
2023-01-30T12:55:03.401Z,939.66
2023-01-30T13:00:04.290Z,939.68
2023-01-30T13:05:04.427Z,939.68
2023-01-30T13:10:04.391Z,939.68
2023-01-30T13:15:03.349Z,939.70
2023-01-30T13:20:04.393Z,939.66
2023-01-30T13:25:03.376Z,939.72
2023-01-30T13:30:04.427Z,939.70
2023-01-30T13:35:03.574Z,939.66
2023-01-30T13:40:09.364Z,939.66
2023-01-30T13:45:03.288Z,939.74
2023-01-30T13:50:04.458Z,939.72
2023-01-30T13:55:03.598Z,939.60
2023-01-30T14:00:04.451Z,939.56
2023-01-30T14:05:03.619Z,939.49
2023-01-30T14:10:04.323Z,939.45
2023-01-30T14:15:03.409Z,939.49
2023-01-30T14:20:04.441Z,939.51
2023-01-30T14:25:03.382Z,939.53
2023-01-30T14:30:04.483Z,939.49
2023-01-30T14:35:03.482Z,939.39
2023-01-30T14:40:04.517Z,939.39
2023-01-30T14:45:03.357Z,939.35
2023-01-30T14:50:04.415Z,939.27
2023-01-30T14:55:15.181Z,939.21
2023-01-30T15:00:15.837Z,939.17
2023-01-30T15:05:03.493Z,939.13
2023-01-30T15:10:04.318Z,939.06
2023-01-30T15:15:03.362Z,938.98
2023-01-30T15:20:04.420Z,938.90
2023-01-30T15:25:03.428Z,938.86
2023-01-30T15:30:04.479Z,938.82
2023-01-30T15:35:03.217Z,938.74
2023-01-30T15:40:04.425Z,938.64
2023-01-30T15:45:03.533Z,938.64
2023-01-30T15:50:04.457Z,938.51
2023-01-30T15:55:03.416Z,938.31
2023-01-30T16:00:04.581Z,938.17
2023-01-30T16:05:03.641Z,938.06
2023-01-30T16:10:11.399Z,938.00
2023-01-30T16:15:17.379Z,937.90
2023-01-30T16:20:04.402Z,937.84
2023-01-30T16:25:03.411Z,937.84
2023-01-30T16:30:06.171Z,937.78
2023-01-30T16:35:03.446Z,937.62
2023-01-30T16:40:04.399Z,937.59
2023-01-30T16:45:03.331Z,937.53
2023-01-30T16:50:04.475Z,937.57
2023-01-30T16:55:03.343Z,937.45
2023-01-30T17:00:04.524Z,937.39
2023-01-30T17:05:03.337Z,937.33
2023-01-30T17:10:04.521Z,937.27
2023-01-30T17:15:03.453Z,937.25
2023-01-30T17:20:04.513Z,937.31
2023-01-30T17:25:03.364Z,937.29
2023-01-30T17:30:04.508Z,937.13
2023-01-30T17:35:03.441Z,937.02
2023-01-30T17:40:04.323Z,937.00
2023-01-30T17:45:03.312Z,936.90
2023-01-30T17:50:04.460Z,936.84
2023-01-30T17:55:03.494Z,936.84
2023-01-30T18:00:04.404Z,936.86
2023-01-30T18:05:03.514Z,936.72
2023-01-30T18:10:04.543Z,936.56
2023-01-30T18:15:03.272Z,936.62
2023-01-30T18:20:04.358Z,936.58
2023-01-30T18:25:03.360Z,936.53
2023-01-30T18:30:04.258Z,936.47
2023-01-30T18:35:03.229Z,936.37
2023-01-30T18:40:04.113Z,936.15
2023-01-30T18:45:03.292Z,936.11
2023-01-30T18:50:04.417Z,936.03
2023-01-30T18:55:03.404Z,935.98
2023-01-30T19:00:04.517Z,935.88
2023-01-30T19:05:03.428Z,935.76
2023-01-30T19:10:04.556Z,935.88
2023-01-30T19:15:03.381Z,935.98
2023-01-30T19:20:04.427Z,935.98
2023-01-30T19:25:03.377Z,935.90
2023-01-30T19:30:04.457Z,935.88
2023-01-30T19:35:03.389Z,935.70
2023-01-30T19:40:04.482Z,935.56
2023-01-30T19:45:03.350Z,935.49
2023-01-30T19:50:04.404Z,935.33
2023-01-30T19:55:03.365Z,935.11
2023-01-30T20:00:04.634Z,935.11
2023-01-30T20:05:03.416Z,935.13
2023-01-30T20:10:04.234Z,935.21
2023-01-30T20:15:03.332Z,935.11
2023-01-30T20:20:05.891Z,935.05
2023-01-30T20:25:03.413Z,935.23
2023-01-30T20:30:04.712Z,935.31
2023-01-30T20:35:03.443Z,935.17
2023-01-30T20:40:05.200Z,935.13
2023-01-30T20:45:04.668Z,935.19
2023-01-30T20:50:04.448Z,935.47
2023-01-30T20:55:03.885Z,935.49
2023-01-30T21:00:06.804Z,935.43
2023-01-30T21:05:04.025Z,935.51
2023-01-30T21:10:04.713Z,935.64
2023-01-30T21:15:03.327Z,935.80
2023-01-30T21:20:04.591Z,936.02
2023-01-30T21:25:03.405Z,936.05
2023-01-30T21:30:04.264Z,936.15
2023-01-30T21:35:03.417Z,936.31
2023-01-30T21:40:05.315Z,936.43
2023-01-30T21:45:03.308Z,936.68
2023-01-30T21:50:04.453Z,936.74
2023-01-30T21:55:03.457Z,936.74
2023-01-30T22:00:04.489Z,936.76
2023-01-30T22:05:03.429Z,936.76
2023-01-30T22:10:04.267Z,936.74
2023-01-30T22:15:03.340Z,936.68
2023-01-30T22:20:04.520Z,936.76
2023-01-30T22:25:03.576Z,936.90
2023-01-30T22:30:04.555Z,937.09
2023-01-30T22:35:03.501Z,937.17
2023-01-30T22:40:04.410Z,937.13
2023-01-30T22:45:03.290Z,937.17
2023-01-30T22:50:04.780Z,937.27
2023-01-30T22:55:03.481Z,937.25
2023-01-30T23:00:04.756Z,937.27
2023-01-30T23:05:03.538Z,937.31
2023-01-30T23:10:04.569Z,937.35
2023-01-30T23:15:03.377Z,937.39
2023-01-30T23:20:04.441Z,937.51
2023-01-30T23:25:03.491Z,937.62
2023-01-30T23:30:04.438Z,937.64
2023-01-30T23:35:03.296Z,937.64
2023-01-30T23:40:05.189Z,937.64
2023-01-30T23:45:03.372Z,937.60
2023-01-30T23:50:04.480Z,937.49
2023-01-30T23:55:03.547Z,937.53
